createdAt,value
2022-11-08T00:01:32.592Z,101001.38
2022-11-08T00:04:01.560Z,101004.09
2022-11-08T00:06:46.845Z,101013.94
2022-11-08T00:09:32.074Z,101010.34
2022-11-08T00:12:17.551Z,101016.66
2022-11-08T00:14:47.006Z,101012.91
2022-11-08T00:17:15.333Z,101028.31
2022-11-08T00:19:44.666Z,101013.06
2022-11-08T00:22:12.500Z,101022.06
2022-11-08T00:24:40.179Z,101028.31
2022-11-08T00:27:08.196Z,101026.59
2022-11-08T00:29:36.009Z,101020.34
2022-11-08T00:32:04.249Z,101022.06
2022-11-08T00:34:32.204Z,101022.91
2022-11-08T00:37:01.334Z,101027.47
2022-11-08T00:39:28.983Z,101019.34
2022-11-08T00:41:56.775Z,101028.31
2022-11-08T00:44:24.541Z,101037.28
2022-11-08T00:46:52.107Z,101030.88
2022-11-08T00:49:19.692Z,101036.31
2022-11-08T00:51:47.363Z,101023.75
2022-11-08T00:54:16.382Z,101022.06
2022-11-08T00:56:43.801Z,101032.91
2022-11-08T00:59:11.822Z,101029.16
2022-11-08T01:01:39.530Z,101022.91
2022-11-08T01:04:07.190Z,101026.47
2022-11-08T01:06:35.176Z,101024.63
2022-11-08T01:09:03.027Z,101029.16
2022-11-08T01:11:31.939Z,101020.06
2022-11-08T01:14:03.187Z,101027.19
2022-11-08T01:16:31.683Z,101030.06
2022-11-08T01:18:59.654Z,101017.34
2022-11-08T01:21:27.150Z,101011.22
2022-11-08T01:23:55.243Z,101014.38
2022-11-08T01:26:23.499Z,101016.06
2022-11-08T01:28:52.269Z,101008.94
2022-11-08T01:31:20.148Z,101012.63
2022-11-08T01:33:51.289Z,101010.94
2022-11-08T01:36:20.083Z,101009.22
2022-11-08T01:38:47.583Z,101008.38
2022-11-08T01:41:15.429Z,101009.22
2022-11-08T01:43:43.489Z,101018.06
2022-11-08T01:46:25.869Z,101014.63
2022-11-08T01:48:55.832Z,101010.06
2022-11-08T01:51:24.355Z,101005.53
2022-11-08T01:53:52.166Z,101010.94
2022-11-08T01:56:20.066Z,100996.38
2022-11-08T01:58:47.793Z,101008.06
2022-11-08T02:01:16.184Z,101004.50
2022-11-08T02:03:43.982Z,101005.22
2022-11-08T02:06:13.074Z,100994.53
2022-11-08T02:08:41.187Z,100998.13
2022-11-08T02:11:08.984Z,101003.53
2022-11-08T02:13:37.481Z,101004.38
2022-11-08T02:16:07.288Z,101008.94
2022-11-08T02:18:34.848Z,101009.78
2022-11-08T02:21:08.145Z,101007.09
2022-11-08T02:23:44.316Z,101009.78
2022-11-08T02:26:11.969Z,101005.22
2022-11-08T02:28:39.718Z,101006.94
2022-11-08T02:31:08.653Z,101001.53
2022-11-08T02:33:36.471Z,101007.78
2022-11-08T02:36:04.046Z,101002.38
2022-11-08T02:38:31.505Z,101003.25
2022-11-08T02:41:00.327Z,101007.78
2022-11-08T02:43:27.765Z,101004.22
2022-11-08T02:45:55.252Z,101001.25
2022-11-08T02:48:22.694Z,100998.66
2022-11-08T02:50:50.237Z,101001.53
2022-11-08T02:53:17.737Z,101008.66
2022-11-08T02:55:45.312Z,101014.09
2022-11-08T02:58:14.153Z,101002.38
2022-11-08T03:00:41.602Z,101005.94
2022-11-08T03:03:09.141Z,100994.09
2022-11-08T03:05:36.572Z,101004.09
2022-11-08T03:08:04.407Z,101022.91
2022-11-08T03:10:31.824Z,100995.13
2022-11-08T03:12:59.854Z,100996.94
2022-11-08T03:15:28.737Z,101010.50
2022-11-08T03:17:56.308Z,101007.78
2022-11-08T03:20:26.154Z,101025.91
2022-11-08T03:22:58.181Z,101001.53
2022-11-08T03:25:26.203Z,101008.66
2022-11-08T03:27:53.911Z,101013.19
2022-11-08T03:30:22.726Z,100995.25
2022-11-08T03:32:52.114Z,100994.38
2022-11-08T03:35:19.789Z,100998.13
2022-11-08T03:37:51.131Z,100994.38
2022-11-08T03:40:18.828Z,100997.09
2022-11-08T03:42:46.929Z,100999.81
2022-11-08T03:45:15.080Z,100996.09
2022-11-08T03:47:44.260Z,100990.69
2022-11-08T03:50:13.844Z,100996.09
2022-11-08T03:52:42.605Z,100990.69
2022-11-08T03:55:10.886Z,100990.69
2022-11-08T03:57:38.964Z,100997.81
2022-11-08T04:00:07.841Z,100994.84
2022-11-08T04:02:39.352Z,100995.69
2022-11-08T04:05:09.569Z,100993.81
2022-11-08T04:07:38.891Z,100976.16
2022-11-08T04:10:07.895Z,100998.38
2022-11-08T04:12:53.569Z,100999.25
2022-11-08T04:15:22.352Z,101000.25
2022-11-08T04:18:09.063Z,101006.53
2022-11-08T04:20:55.936Z,101014.66
2022-11-08T04:23:25.419Z,101008.38
2022-11-08T04:25:56.559Z,101005.66
2022-11-08T04:28:24.702Z,101009.09
2022-11-08T04:30:53.510Z,101006.38
2022-11-08T04:33:21.717Z,101005.53
2022-11-08T04:35:49.370Z,100999.25
2022-11-08T04:38:17.412Z,101003.81
2022-11-08T04:40:46.566Z,101003.81
2022-11-08T04:43:14.781Z,101010.06
2022-11-08T04:45:42.429Z,101003.53
2022-11-08T04:48:09.950Z,101006.09
2022-11-08T04:50:37.560Z,101002.69
2022-11-08T04:53:05.392Z,101011.78
2022-11-08T04:55:32.876Z,101006.38
2022-11-08T04:58:01.740Z,101004.66
2022-11-08T05:00:29.391Z,101004.66
2022-11-08T05:02:57.549Z,101002.09
2022-11-08T05:05:25.329Z,101007.50
2022-11-08T05:07:52.776Z,101005.66
2022-11-08T05:10:20.676Z,101006.66
2022-11-08T05:12:48.201Z,100999.53
2022-11-08T05:15:17.078Z,101002.38
2022-11-08T05:17:44.609Z,100996.09
2022-11-08T05:20:29.626Z,100997.81
2022-11-08T05:23:18.549Z,100996.94
2022-11-08T05:25:46.362Z,100998.81
2022-11-08T05:28:13.874Z,100997.09
2022-11-08T05:30:42.742Z,100990.69
2022-11-08T05:33:10.393Z,100991.69
2022-11-08T05:35:38.116Z,100988.97
2022-11-08T05:38:05.812Z,100983.56
2022-11-08T05:40:33.715Z,100988.97
2022-11-08T05:43:01.372Z,100993.41
2022-11-08T05:45:28.791Z,100988.97
2022-11-08T05:47:57.776Z,100988.97
2022-11-08T05:50:25.742Z,100994.38
2022-11-08T05:52:55.011Z,100994.38
2022-11-08T05:55:22.614Z,100998.13
2022-11-08T05:57:50.059Z,100992.69
2022-11-08T06:00:17.707Z,100991.81
2022-11-08T06:02:45.182Z,100992.69
2022-11-08T06:05:14.048Z,100987.28
2022-11-08T06:07:41.448Z,100980.97
2022-11-08T06:10:09.648Z,100993.69
2022-11-08T06:12:38.208Z,100992.13
2022-11-08T06:15:06.334Z,101005.53
2022-11-08T06:17:33.855Z,101009.78
2022-11-08T06:20:01.475Z,100992.69
2022-11-08T06:22:32.619Z,101002.81
2022-11-08T06:25:00.452Z,101004.66
2022-11-08T06:27:28.213Z,101006.38
2022-11-08T06:29:56.301Z,101012.34
2022-11-08T06:32:24.059Z,101015.03
2022-11-08T06:34:52.619Z,101012.41
2022-11-08T06:37:20.344Z,101010.09
2022-11-08T06:39:49.482Z,101024.06
2022-11-08T06:42:17.440Z,100997.41
2022-11-08T06:44:45.161Z,101008.69
2022-11-08T06:47:12.950Z,101018.53
2022-11-08T06:49:40.464Z,101016.88
2022-11-08T06:52:07.894Z,101020.75
2022-11-08T06:54:35.419Z,101016.59
2022-11-08T06:57:04.296Z,101012.91
2022-11-08T06:59:31.722Z,101016.31
2022-11-08T07:01:59.362Z,101025.47
2022-11-08T07:04:26.859Z,101021.44
2022-11-08T07:06:54.345Z,101014.03
2022-11-08T07:09:21.912Z,101016.47
2022-11-08T07:11:49.395Z,101010.91
2022-11-08T07:14:18.169Z,101012.63
2022-11-08T07:16:45.668Z,101012.63
2022-11-08T07:19:13.171Z,100998.94
2022-11-08T07:21:40.619Z,101011.50
2022-11-08T07:24:08.092Z,101011.50
2022-11-08T07:26:35.604Z,101005.81
2022-11-08T07:29:03.119Z,101011.38
2022-11-08T07:31:31.963Z,101015.78
2022-11-08T07:33:59.451Z,101007.78
2022-11-08T07:36:26.910Z,101013.78
2022-11-08T07:38:54.817Z,101013.78
2022-11-08T07:41:22.279Z,101003.81
2022-11-08T07:43:49.911Z,101010.06
2022-11-08T07:46:17.805Z,101015.63
2022-11-08T07:48:46.700Z,101011.22
2022-11-08T07:51:14.190Z,101005.94
2022-11-08T07:53:41.605Z,101007.50
2022-11-08T07:56:09.384Z,101001.38
2022-11-08T07:58:37.253Z,101004.66
2022-11-08T08:01:05.687Z,101001.38
2022-11-08T08:03:33.221Z,100998.53
2022-11-08T08:06:02.115Z,100998.66
2022-11-08T08:08:29.793Z,100991.25
2022-11-08T08:10:57.778Z,100992.97
2022-11-08T08:13:25.294Z,100991.25
2022-11-08T08:15:52.847Z,100989.56
2022-11-08T08:18:21.695Z,100982.41
2022-11-08T08:20:49.299Z,100985.84
2022-11-08T08:23:18.508Z,100983.13
2022-11-08T08:25:46.214Z,100986.72
2022-11-08T08:28:13.702Z,100982.97
2022-11-08T08:30:41.492Z,100983.88
2022-11-08T08:35:57.420Z,100974.16
2022-11-08T08:38:26.281Z,100971.31
2022-11-08T08:40:53.824Z,100972.16
2022-11-08T08:43:21.805Z,100959.63
2022-11-08T08:45:49.885Z,100970.47
2022-11-08T08:48:17.453Z,100970.59
2022-11-08T08:50:44.936Z,100964.16
2022-11-08T08:53:12.413Z,100970.47
2022-11-08T08:55:41.780Z,100967.63
2022-11-08T08:58:09.668Z,100963.88
2022-11-08T09:03:25.071Z,100971.31
2022-11-08T09:05:52.606Z,100960.47
2022-11-08T09:08:20.250Z,100971.31
2022-11-08T09:10:49.232Z,100964.16
2022-11-08T09:13:16.970Z,100970.47
2022-11-08T09:15:44.640Z,100964.31
2022-11-08T09:18:12.212Z,100960.75
2022-11-08T09:20:40.192Z,100965.19
2022-11-08T09:23:07.735Z,100963.19
2022-11-08T09:25:35.161Z,100960.75
2022-11-08T09:28:04.052Z,100956.19
2022-11-08T09:30:31.554Z,100958.75
2022-11-08T09:33:01.275Z,100955.34
2022-11-08T09:35:29.593Z,100952.50
2022-11-08T09:37:57.327Z,100962.47
2022-11-08T09:40:27.288Z,100957.06
2022-11-08T09:42:58.221Z,100950.47
2022-11-08T09:45:29.090Z,100954.22
2022-11-08T09:47:57.129Z,100955.06
2022-11-08T09:50:26.785Z,100958.47
2022-11-08T09:52:56.151Z,100948.78
2022-11-08T09:55:25.775Z,100944.22
2022-11-08T09:57:59.355Z,100950.34
2022-11-08T10:00:28.129Z,100942.34
2022-11-08T10:02:55.873Z,100943.94
2022-11-08T10:05:23.609Z,100940.53
2022-11-08T10:07:52.576Z,100936.81
2022-11-08T10:10:35.467Z,100937.81
2022-11-08T10:13:04.874Z,100927.97
2022-11-08T10:15:34.975Z,100936.81
2022-11-08T10:18:09.838Z,100933.09
2022-11-08T10:20:39.958Z,100952.06
2022-11-08T10:23:11.297Z,100933.09
2022-11-08T10:25:40.360Z,100922.28
2022-11-08T10:28:08.369Z,100922.28
2022-11-08T10:30:37.503Z,100930.25
2022-11-08T10:33:11.178Z,100930.25
2022-11-08T10:35:39.465Z,100929.38
2022-11-08T10:38:09.910Z,100928.53
2022-11-08T10:40:38.988Z,100921.25
2022-11-08T10:43:09.466Z,100929.38
2022-11-08T10:45:38.588Z,100926.66
2022-11-08T10:48:06.438Z,100917.56
2022-11-08T10:50:36.920Z,100912.97
2022-11-08T10:53:04.717Z,100918.53
2022-11-08T10:55:33.556Z,100912.13
2022-11-08T10:58:01.152Z,100914.00
2022-11-08T11:00:29.697Z,100920.25
2022-11-08T11:02:59.298Z,100917.56
2022-11-08T11:05:31.056Z,100914.00
2022-11-08T11:08:01.931Z,100909.44
2022-11-08T11:10:30.255Z,100909.44
2022-11-08T11:13:01.359Z,100902.28
2022-11-08T11:15:31.865Z,100896.88
2022-11-08T11:18:00.733Z,100897.75
2022-11-08T11:20:28.163Z,100888.59
2022-11-08T11:22:56.021Z,100887.75
2022-11-08T11:25:24.456Z,100887.75
2022-11-08T11:27:54.947Z,100886.63
2022-11-08T11:30:25.277Z,100891.16
2022-11-08T11:32:56.337Z,100877.78
2022-11-08T11:35:25.186Z,100875.78
2022-11-08T11:37:52.646Z,100870.53
2022-11-08T11:40:20.809Z,100866.09
2022-11-08T11:42:50.687Z,100866.94
2022-11-08T11:45:18.895Z,100866.09
2022-11-08T11:47:47.851Z,100857.97
2022-11-08T11:50:30.473Z,100858.81
2022-11-08T11:52:59.751Z,100859.41
2022-11-08T11:55:28.243Z,100841.56
2022-11-08T11:57:58.128Z,100849.69
2022-11-08T12:00:25.808Z,100850.41
2022-11-08T12:03:03.073Z,100844.13
2022-11-08T12:05:33.240Z,100845.84
2022-11-08T12:08:05.985Z,100846.69
2022-11-08T12:10:36.494Z,100832.47
2022-11-08T12:13:04.911Z,100824.19
2022-11-08T12:15:33.386Z,100827.75
2022-11-08T12:18:04.222Z,100822.31
2022-11-08T12:20:35.123Z,100821.63
2022-11-08T12:23:07.764Z,100816.75
2022-11-08T12:25:36.650Z,100817.59
2022-11-08T12:28:05.771Z,100817.59
2022-11-08T12:30:35.762Z,100823.00
2022-11-08T12:33:12.153Z,100816.75
2022-11-08T12:35:41.363Z,100811.34
2022-11-08T12:38:15.506Z,100811.34
2022-11-08T12:40:44.698Z,100804.19
2022-11-08T12:43:27.191Z,100806.06
2022-11-08T12:45:57.157Z,100796.94
2022-11-08T12:48:27.974Z,100805.06
2022-11-08T12:51:01.301Z,100798.78
2022-11-08T12:53:42.903Z,100787.09
2022-11-08T12:56:15.074Z,100779.97
2022-11-08T12:58:44.087Z,100780.84
2022-11-08T13:01:12.122Z,100776.41
2022-11-08T13:03:54.898Z,100772.88
2022-11-08T13:06:24.191Z,100767.31
2022-11-08T13:08:56.731Z,100767.44
2022-11-08T13:11:26.071Z,100754.91
2022-11-08T13:13:54.044Z,100752.34
2022-11-08T13:16:21.918Z,100752.03
2022-11-08T13:18:50.031Z,100743.22
2022-11-08T13:21:37.821Z,100742.91
2022-11-08T13:27:32.090Z,100745.63
2022-11-08T13:30:01.033Z,100750.03
2022-11-08T13:32:31.071Z,100746.63
2022-11-08T13:34:59.847Z,100757.47
2022-11-08T13:37:40.087Z,100754.91
2022-11-08T13:40:17.602Z,100754.91
2022-11-08T13:42:59.942Z,100753.75
2022-11-08T13:45:28.693Z,100764.88
2022-11-08T13:47:57.382Z,100766.72
2022-11-08T13:50:45.727Z,100758.59
2022-11-08T13:53:27.205Z,100761.44
2022-11-08T13:55:56.880Z,100757.75
2022-11-08T13:58:35.229Z,100749.78
2022-11-08T14:01:03.139Z,100749.78
2022-11-08T14:03:49.598Z,100752.47
2022-11-08T14:06:18.638Z,100743.50
2022-11-08T14:08:48.542Z,100743.50
2022-11-08T14:11:36.071Z,100744.22
2022-11-08T14:14:11.560Z,100728.94
2022-11-08T14:16:42.697Z,100738.09
2022-11-08T14:19:17.036Z,100734.50
2022-11-08T14:21:47.268Z,100726.38
2022-11-08T14:24:16.034Z,100736.38
2022-11-08T14:26:45.931Z,100733.53
2022-11-08T14:29:17.642Z,100728.25
2022-11-08T14:31:45.408Z,100738.09
2022-11-08T14:34:28.405Z,100731.09
2022-11-08T14:36:56.300Z,100736.38
2022-11-08T14:39:25.826Z,100728.41
2022-11-08T14:41:53.758Z,100721.28
2022-11-08T14:44:22.952Z,100717.72
2022-11-08T14:46:50.893Z,100716.88
2022-11-08T14:49:20.131Z,100712.44
2022-11-08T14:51:47.725Z,100711.59
2022-11-08T14:54:16.191Z,100711.59
2022-11-08T14:56:53.791Z,100709.88
2022-11-08T14:59:24.777Z,100703.63
2022-11-08T15:01:52.386Z,100714.47
2022-11-08T15:04:20.336Z,100701.91
2022-11-08T15:06:48.105Z,100691.06
2022-11-08T15:09:18.221Z,100689.38
2022-11-08T15:11:52.558Z,100692.25
2022-11-08T15:14:20.851Z,100698.50
2022-11-08T15:16:50.723Z,100697.66
2022-11-08T15:19:18.734Z,100693.09
2022-11-08T15:21:48.058Z,100690.53
2022-11-08T15:24:22.169Z,100687.13
2022-11-08T15:27:05.775Z,100705.06
2022-11-08T15:29:48.091Z,100688.81
2022-11-08T15:32:17.866Z,100685.41
2022-11-08T15:34:45.375Z,100695.41
2022-11-08T15:37:21.908Z,100695.25
2022-11-08T15:39:49.456Z,100697.97
2022-11-08T15:42:17.465Z,100683.53
2022-11-08T15:45:00.813Z,100672.84
2022-11-08T15:47:39.782Z,100678.28
2022-11-08T15:50:14.246Z,100682.00
2022-11-08T15:52:41.778Z,100689.09
2022-11-08T15:55:09.694Z,100680.28
2022-11-08T15:57:37.292Z,100684.88
2022-11-08T16:00:05.842Z,100688.56
2022-11-08T16:02:41.553Z,100682.31
2022-11-08T16:05:12.771Z,100676.03
2022-11-08T16:07:40.335Z,100681.28
2022-11-08T16:10:08.488Z,100679.44
2022-11-08T16:12:35.993Z,100682.31
2022-11-08T16:15:03.492Z,100676.88
2022-11-08T16:17:30.965Z,100677.88
2022-11-08T16:20:00.068Z,100676.19
2022-11-08T16:22:28.048Z,100668.38
2022-11-08T16:24:55.497Z,100673.47
2022-11-08T16:27:22.985Z,100660.94
2022-11-08T16:29:50.434Z,100662.66
2022-11-08T16:32:17.865Z,100666.34
2022-11-08T16:34:45.354Z,100668.91
2022-11-08T16:37:14.293Z,100668.06
2022-11-08T16:39:41.994Z,100669.06
2022-11-08T16:42:09.742Z,100670.03
2022-11-08T16:44:38.341Z,100675.31
2022-11-08T16:47:05.874Z,100658.66
2022-11-08T16:49:33.410Z,100666.66
2022-11-08T16:52:00.882Z,100662.94
2022-11-08T16:54:30.797Z,100661.22
2022-11-08T16:57:20.718Z,100660.38
2022-11-08T16:59:45.922Z,100666.66
2022-11-08T17:02:17.768Z,100662.06
2022-11-08T17:04:49.201Z,100662.94
2022-11-08T17:07:17.447Z,100666.34
2022-11-08T17:09:47.233Z,100670.91
2022-11-08T17:12:14.748Z,100668.06
2022-11-08T17:14:42.258Z,100662.66
2022-11-08T17:17:10.568Z,100666.06
2022-11-08T17:19:38.086Z,100658.94
2022-11-08T17:22:05.814Z,100661.47
2022-11-08T17:24:33.425Z,100662.31
2022-11-08T17:27:02.411Z,100676.88
2022-11-08T17:29:29.905Z,100665.22
2022-11-08T17:31:57.538Z,100665.22
2022-11-08T17:34:25.130Z,100664.34
2022-11-08T17:36:53.182Z,100664.34
2022-11-08T17:39:20.717Z,100654.38
2022-11-08T17:41:48.390Z,100651.81
2022-11-08T17:44:17.349Z,100651.81
2022-11-08T17:46:45.143Z,100658.94
2022-11-08T17:49:12.682Z,100658.94
2022-11-08T17:51:40.223Z,100664.34
2022-11-08T17:54:07.836Z,100664.34
2022-11-08T17:56:35.648Z,100667.03
2022-11-08T17:59:04.092Z,100669.75
2022-11-08T18:01:33.139Z,100667.03
2022-11-08T18:04:00.957Z,100670.63
2022-11-08T18:06:29.058Z,100675.16
2022-11-08T18:08:56.882Z,100678.03
2022-11-08T18:11:24.519Z,100676.03
2022-11-08T18:13:52.186Z,100675.16
2022-11-08T18:16:21.979Z,100669.75
2022-11-08T18:18:50.942Z,100668.06
2022-11-08T18:21:18.776Z,100664.34
2022-11-08T18:23:47.332Z,100669.75
2022-11-08T18:26:15.673Z,100666.34
2022-11-08T18:28:43.479Z,100676.03
2022-11-08T18:31:11.635Z,100657.25
2022-11-08T18:33:39.356Z,100650.09
2022-11-08T18:36:09.089Z,100658.94
2022-11-08T18:38:39.087Z,100664.34
2022-11-08T18:41:07.177Z,100651.81
2022-11-08T18:43:34.792Z,100643.84
2022-11-08T18:46:02.876Z,100649.25
2022-11-08T18:48:32.275Z,100657.38
2022-11-08T18:51:00.056Z,100664.34
2022-11-08T18:53:29.631Z,100655.53
2022-11-08T18:55:58.233Z,100655.38
2022-11-08T18:58:25.990Z,100650.94
2022-11-08T19:00:53.753Z,100658.94
2022-11-08T19:03:21.994Z,100656.38
2022-11-08T19:05:49.996Z,100665.38
2022-11-08T19:08:17.824Z,100660.94
2022-11-08T19:10:51.393Z,100658.38
2022-11-08T19:13:19.384Z,100664.63
2022-11-08T19:15:47.219Z,100676.34
2022-11-08T19:18:15.615Z,100663.78
2022-11-08T19:20:43.522Z,100669.34
2022-11-08T19:23:11.161Z,100675.47
2022-11-08T19:25:39.056Z,100664.63
2022-11-08T19:28:08.416Z,100679.19
2022-11-08T19:30:36.029Z,100679.19
2022-11-08T19:33:03.588Z,100674.78
2022-11-08T19:35:31.427Z,100672.91
2022-11-08T19:37:58.938Z,100673.78
2022-11-08T19:40:31.932Z,100685.44
2022-11-08T19:43:00.105Z,100675.47
2022-11-08T19:45:29.005Z,100682.88
2022-11-08T19:47:56.504Z,100677.47
2022-11-08T19:50:24.005Z,100674.78
2022-11-08T19:52:51.570Z,100678.47
2022-11-08T19:55:19.469Z,100671.22
2022-11-08T19:57:47.461Z,100663.09
2022-11-08T20:00:17.901Z,100661.22
2022-11-08T20:02:47.370Z,100661.22
2022-11-08T20:05:15.410Z,100661.22
2022-11-08T20:07:45.576Z,100660.38
2022-11-08T20:10:13.906Z,100666.66
2022-11-08T20:12:41.462Z,100663.09
2022-11-08T20:15:09.239Z,100672.06
2022-11-08T20:17:37.031Z,100668.38
2022-11-08T20:20:06.599Z,100659.50
2022-11-08T20:22:34.056Z,100654.09
2022-11-08T20:25:01.715Z,100664.94
2022-11-08T20:27:29.255Z,100665.81
2022-11-08T20:29:56.760Z,100664.09
2022-11-08T20:32:24.346Z,100659.50
2022-11-08T20:34:52.016Z,100662.38
2022-11-08T20:37:20.977Z,100665.81
2022-11-08T20:39:48.451Z,100659.50
2022-11-08T20:42:18.616Z,100667.78
2022-11-08T20:44:47.379Z,100664.94
2022-11-08T20:47:14.820Z,100677.47
2022-11-08T20:49:42.486Z,100685.31
2022-11-08T20:52:09.991Z,100668.38
2022-11-08T20:54:43.731Z,100674.47
2022-11-08T20:57:11.557Z,100664.94
2022-11-08T21:03:35.046Z,100669.50
2022-11-08T21:06:03.318Z,100670.63
2022-11-08T21:11:21.224Z,100675.06
2022-11-08T21:13:49.575Z,100673.34
2022-11-08T21:16:29.917Z,100671.66
2022-11-08T21:18:59.556Z,100679.78
2022-11-08T21:21:27.399Z,100668.94
2022-11-08T21:23:55.239Z,100662.66
2022-11-08T21:26:24.117Z,100665.50
2022-11-08T21:28:52.183Z,100671.81
2022-11-08T21:31:19.668Z,100658.41
2022-11-08T21:33:47.357Z,100668.38
2022-11-08T21:36:15.468Z,100667.22
2022-11-08T21:38:42.984Z,100675.50
2022-11-08T21:41:10.601Z,100669.09
2022-11-08T21:43:47.527Z,100661.81
2022-11-08T21:46:21.287Z,100662.97
2022-11-08T21:48:53.712Z,100664.78
2022-11-08T21:51:21.334Z,100660.09
2022-11-08T21:53:54.762Z,100653.00
2022-11-08T21:56:23.317Z,100646.84
2022-11-08T21:58:52.103Z,100660.38
2022-11-08T22:01:19.742Z,100654.94
2022-11-08T22:03:47.625Z,100662.09
2022-11-08T22:06:15.177Z,100654.94
2022-11-08T22:08:43.093Z,100664.09
2022-11-08T22:11:10.607Z,100655.81
2022-11-08T22:13:38.086Z,100664.78
2022-11-08T22:16:07.258Z,100663.22
2022-11-08T22:21:42.803Z,100665.78
2022-11-08T22:24:10.812Z,100659.50
2022-11-08T22:26:38.282Z,100656.38
2022-11-08T22:29:05.800Z,100659.94
2022-11-08T22:31:34.846Z,100662.31
2022-11-08T22:34:02.739Z,100664.03
2022-11-08T22:36:30.751Z,100661.72
2022-11-08T22:38:59.215Z,100662.47
2022-11-08T22:41:26.733Z,100659.75
2022-11-08T22:43:54.235Z,100660.31
2022-11-08T22:46:21.810Z,100659.31
2022-11-08T22:48:50.994Z,100657.44
2022-11-08T22:51:18.516Z,100662.72
2022-11-08T22:53:46.397Z,100649.16
2022-11-08T22:56:13.949Z,100655.44
2022-11-08T22:58:41.457Z,100645.31
2022-11-08T23:01:09.103Z,100651.72
2022-11-08T23:03:36.668Z,100652.56
2022-11-08T23:06:05.752Z,100667.13
2022-11-08T23:08:33.579Z,100660.00
2022-11-08T23:11:19.086Z,100655.44
2022-11-08T23:14:04.050Z,100655.44
2022-11-08T23:16:36.410Z,100657.16
2022-11-08T23:19:22.264Z,100657.97
2022-11-08T23:22:08.686Z,100673.41
2022-11-08T23:24:36.202Z,100673.41
2022-11-08T23:27:21.398Z,100667.97
2022-11-08T23:30:06.489Z,100667.97
2022-11-08T23:32:33.992Z,100673.41
2022-11-08T23:35:01.891Z,100662.56
2022-11-08T23:37:30.920Z,100676.78
2022-11-08T23:40:16.004Z,100670.00
2022-11-08T23:43:00.991Z,100670.84
2022-11-08T23:45:28.431Z,100677.09
2022-11-08T23:47:55.959Z,100678.81
2022-11-08T23:50:23.474Z,100678.81
2022-11-08T23:52:52.596Z,100687.94
2022-11-08T23:55:20.224Z,100690.47
2022-11-08T23:57:48.291Z,100706.03
